createdAt,value
2022-09-04T00:02:00.984Z,98173.69
2022-09-04T00:04:44.822Z,98180.47
2022-09-04T00:07:20.668Z,98178.44
2022-09-04T00:10:25.893Z,98177.53
2022-09-04T00:13:17.335Z,98179.81
2022-09-04T00:16:13.245Z,98182.56
2022-09-04T00:19:39.421Z,98184.16
2022-09-04T00:22:39.554Z,98184.91
2022-09-04T00:25:27.665Z,98171.59
2022-09-04T00:28:27.452Z,98177.25
2022-09-04T00:31:10.306Z,98181.16
2022-09-04T00:34:07.191Z,98182.91
2022-09-04T00:36:39.376Z,98186.34
2022-09-04T00:39:35.961Z,98177.16
2022-09-04T00:42:13.723Z,98179.44
2022-09-04T00:44:57.965Z,98190.16
2022-09-04T00:47:52.496Z,98184.56
2022-09-04T00:51:03.167Z,98189.97
2022-09-04T00:54:13.254Z,98195.88
2022-09-04T00:56:52.158Z,98197.56
2022-09-04T00:59:27.960Z,98200.28
2022-09-04T01:02:02.677Z,98201.16
2022-09-04T01:05:50.111Z,98208.66
2022-09-04T01:08:47.718Z,98208.34
2022-09-04T01:11:43.391Z,98211.84
2022-09-04T01:14:48.584Z,98220.16
2022-09-04T01:17:41.097Z,98218.53
2022-09-04T01:20:43.580Z,98224.88
2022-09-04T01:24:07.196Z,98220.28
2022-09-04T01:27:03.345Z,98234.31
2022-09-04T01:29:51.705Z,98242.00
2022-09-04T01:33:15.161Z,98235.94
2022-09-04T01:36:06.024Z,98233.72
2022-09-04T01:38:56.281Z,98231.38
2022-09-04T01:41:55.371Z,98234.06
2022-09-04T01:44:23.542Z,98234.78
2022-09-04T01:47:04.353Z,98240.34
2022-09-04T01:50:02.200Z,98235.75
2022-09-04T01:52:53.879Z,98233.63
2022-09-04T01:55:45.200Z,98234.84
2022-09-04T01:59:03.122Z,98239.75
2022-09-04T02:01:39.552Z,98246.41
2022-09-04T02:04:28.244Z,98254.28
2022-09-04T02:07:14.400Z,98245.03
2022-09-04T02:10:29.017Z,98243.13
2022-09-04T02:13:34.138Z,98233.88
2022-09-04T02:16:22.131Z,98245.06
2022-09-04T02:19:06.776Z,98244.59
2022-09-04T02:21:56.216Z,98242.38
2022-09-04T02:25:07.908Z,98244.69
2022-09-04T02:28:16.325Z,98244.44
2022-09-04T02:31:05.647Z,98246.06
2022-09-04T02:34:19.074Z,98245.28
2022-09-04T02:37:16.534Z,98250.41
2022-09-04T02:40:11.268Z,98254.34
2022-09-04T02:42:53.212Z,98246.44
2022-09-04T02:45:45.187Z,98252.88
2022-09-04T02:48:43.047Z,98253.84
2022-09-04T02:51:34.371Z,98261.00
2022-09-04T02:55:04.858Z,98259.69
2022-09-04T02:58:01.844Z,98260.09
2022-09-04T03:01:07.949Z,98273.00
2022-09-04T03:03:52.001Z,98275.59
2022-09-04T03:06:50.341Z,98262.63
2022-09-04T03:10:14.047Z,98269.31
2022-09-04T03:13:01.806Z,98274.44
2022-09-04T03:15:46.756Z,98269.16
2022-09-04T03:18:30.759Z,98271.91
2022-09-04T03:21:14.632Z,98266.78
2022-09-04T03:24:17.455Z,98274.09
2022-09-04T03:27:01.861Z,98282.53
2022-09-04T03:30:06.441Z,98275.06
2022-09-04T03:32:51.921Z,98274.22
2022-09-04T03:36:03.809Z,98277.38
2022-09-04T03:38:51.832Z,98269.09
2022-09-04T03:41:44.081Z,98268.34
2022-09-04T03:44:22.958Z,98264.22
2022-09-04T03:47:26.678Z,98273.53
2022-09-04T03:50:12.515Z,98272.69
2022-09-04T03:53:14.526Z,98279.22
2022-09-04T03:56:32.650Z,98285.81
2022-09-04T03:59:54.109Z,98275.88
2022-09-04T04:02:41.578Z,98284.81
2022-09-04T04:05:39.818Z,98289.47
2022-09-04T04:08:37.725Z,98284.50
2022-09-04T04:11:43.253Z,98281.03
2022-09-04T04:14:38.823Z,98294.78
2022-09-04T04:17:41.733Z,98299.75
2022-09-04T04:20:56.232Z,98300.88
2022-09-04T04:23:57.966Z,98305.78
2022-09-04T04:26:40.499Z,98303.50
2022-09-04T04:29:48.619Z,98306.84
2022-09-04T04:32:18.121Z,98322.53
2022-09-04T04:35:11.074Z,98318.84
2022-09-04T04:38:28.694Z,98314.28
2022-09-04T04:41:16.391Z,98325.84
2022-09-04T04:44:11.217Z,98324.66
2022-09-04T04:47:09.767Z,98330.66
2022-09-04T04:50:33.139Z,98334.28
2022-09-04T04:53:15.258Z,98334.44
2022-09-04T04:56:15.510Z,98342.13
2022-09-04T04:59:20.372Z,98343.94
2022-09-04T05:02:21.333Z,98348.53
2022-09-04T05:05:13.642Z,98347.78
2022-09-04T05:08:07.675Z,98364.34
2022-09-04T05:10:42.884Z,98365.81
2022-09-04T05:13:45.769Z,98367.50
2022-09-04T05:16:36.265Z,98378.97
2022-09-04T05:20:10.955Z,98385.44
2022-09-04T05:22:53.206Z,98378.63
2022-09-04T05:25:37.104Z,98384.59
2022-09-04T05:28:31.818Z,98387.44
2022-09-04T05:31:46.442Z,98393.38
2022-09-04T05:34:54.526Z,98398.38
2022-09-04T05:37:29.635Z,98398.47
2022-09-04T05:40:15.424Z,98404.69
2022-09-04T05:43:14.318Z,98406.59
2022-09-04T05:46:16.273Z,98410.03
2022-09-04T05:49:03.457Z,98430.34
2022-09-04T05:52:13.233Z,98424.84
2022-09-04T05:55:05.240Z,98436.00
2022-09-04T05:57:57.067Z,98442.00
2022-09-04T06:00:26.593Z,98437.03
2022-09-04T06:03:21.891Z,98434.72
2022-09-04T06:06:35.590Z,98445.31
2022-09-04T06:09:16.923Z,98441.28
2022-09-04T06:12:10.181Z,98437.84
2022-09-04T06:14:49.041Z,98446.50
2022-09-04T06:17:54.177Z,98448.94
2022-09-04T06:20:56.344Z,98446.81
2022-09-04T06:23:56.315Z,98442.13
2022-09-04T06:27:11.101Z,98448.97
2022-09-04T06:29:51.408Z,98449.75
2022-09-04T06:32:36.023Z,98461.28
2022-09-04T06:35:27.305Z,98466.09
2022-09-04T06:38:20.182Z,98469.91
2022-09-04T06:41:32.193Z,98473.16
2022-09-04T06:44:38.488Z,98481.78
2022-09-04T06:47:22.643Z,98476.06
2022-09-04T06:50:05.957Z,98485.63
2022-09-04T06:53:01.013Z,98474.03
2022-09-04T06:56:12.296Z,98479.31
2022-09-04T06:59:13.773Z,98474.97
2022-09-04T07:02:26.046Z,98480.13
2022-09-04T07:04:56.201Z,98481.44
2022-09-04T07:07:53.717Z,98485.94
2022-09-04T07:10:59.679Z,98491.84
2022-09-04T07:14:16.495Z,98488.59
2022-09-04T07:17:19.748Z,98506.53
2022-09-04T07:20:08.466Z,98499.09
2022-09-04T07:23:32.630Z,98513.69
2022-09-04T07:26:30.414Z,98523.66
2022-09-04T07:29:29.557Z,98513.94
2022-09-04T07:32:30.623Z,98510.69
2022-09-04T07:35:25.111Z,98512.22
2022-09-04T07:38:04.954Z,98518.72
2022-09-04T07:40:43.662Z,98510.53
2022-09-04T07:43:42.673Z,98509.94
2022-09-04T07:46:33.579Z,98507.34
2022-09-04T07:49:17.282Z,98510.69
2022-09-04T07:52:08.844Z,98514.50
2022-09-04T07:55:08.100Z,98524.44
2022-09-04T07:58:13.268Z,98524.94
2022-09-04T08:01:01.864Z,98520.72
2022-09-04T08:03:53.748Z,98531.53
2022-09-04T08:06:34.107Z,98535.06
2022-09-04T08:09:36.517Z,98538.81
2022-09-04T08:12:28.659Z,98538.16
2022-09-04T08:15:43.190Z,98539.63
2022-09-04T08:18:58.375Z,98543.72
2022-09-04T08:21:32.006Z,98550.19
2022-09-04T08:24:29.312Z,98544.50
2022-09-04T08:27:09.374Z,98536.91
2022-09-04T08:30:04.656Z,98552.34
2022-09-04T08:33:04.180Z,98540.31
2022-09-04T08:36:10.419Z,98560.47
2022-09-04T08:38:55.456Z,98567.13
2022-09-04T08:42:05.834Z,98558.84
2022-09-04T08:45:06.971Z,98567.06
2022-09-04T08:47:54.529Z,98561.69
2022-09-04T08:50:37.825Z,98565.41
2022-09-04T08:53:47.418Z,98558.00
2022-09-04T08:56:42.385Z,98557.59
2022-09-04T09:00:12.684Z,98564.22
2022-09-04T09:03:29.646Z,98571.56
2022-09-04T09:06:24.422Z,98567.81
2022-09-04T09:09:12.708Z,98567.19
2022-09-04T09:12:09.054Z,98568.97
2022-09-04T09:15:11.322Z,98572.41
2022-09-04T09:17:53.921Z,98573.19
2022-09-04T09:20:36.571Z,98569.75
2022-09-04T09:23:58.154Z,98585.59
2022-09-04T09:26:29.536Z,98575.47
2022-09-04T09:29:27.968Z,98566.66
2022-09-04T09:32:22.702Z,98564.66
2022-09-04T09:35:46.343Z,98566.97
2022-09-04T09:38:34.809Z,98559.25
2022-09-04T09:41:10.630Z,98558.22
2022-09-04T09:44:34.118Z,98552.34
2022-09-04T09:47:26.541Z,98547.41
2022-09-04T09:50:18.094Z,98550.75
2022-09-04T09:52:57.338Z,98559.00
2022-09-04T09:55:51.432Z,98552.47
2022-09-04T09:58:37.924Z,98551.31
2022-09-04T10:01:26.081Z,98547.81
2022-09-04T10:04:34.122Z,98550.84
2022-09-04T10:07:42.627Z,98545.84
2022-09-04T10:10:30.990Z,98550.31
2022-09-04T10:13:22.191Z,98547.22
2022-09-04T10:16:32.386Z,98543.91
2022-09-04T10:19:40.571Z,98540.84
2022-09-04T10:22:44.452Z,98550.22
2022-09-04T10:25:51.050Z,98544.47
2022-09-04T10:28:59.521Z,98545.19
2022-09-04T10:31:26.967Z,98542.38
2022-09-04T10:34:24.879Z,98535.34
2022-09-04T10:37:27.069Z,98529.13
2022-09-04T10:40:18.678Z,98534.59
2022-09-04T10:43:14.686Z,98535.53
2022-09-04T10:45:57.307Z,98543.41
2022-09-04T10:48:58.769Z,98527.97
2022-09-04T10:51:40.613Z,98536.72
2022-09-04T10:54:18.090Z,98537.28
2022-09-04T10:57:22.553Z,98528.47
2022-09-04T10:59:59.234Z,98535.41
2022-09-04T11:03:13.816Z,98536.88
2022-09-04T11:06:12.663Z,98528.84
2022-09-04T11:09:19.423Z,98527.69
2022-09-04T11:12:31.879Z,98526.63
2022-09-04T11:15:48.046Z,98527.59
2022-09-04T11:18:38.123Z,98524.00
2022-09-04T11:22:05.539Z,98541.25
2022-09-04T11:25:19.440Z,98536.28
2022-09-04T11:28:47.321Z,98522.88
2022-09-04T11:31:48.574Z,98511.59
2022-09-04T11:34:52.468Z,98515.25
2022-09-04T11:37:45.756Z,98509.72
2022-09-04T11:40:55.280Z,98515.72
2022-09-04T11:44:04.334Z,98515.59
2022-09-04T11:47:15.087Z,98509.78
2022-09-04T11:50:21.913Z,98502.56
2022-09-04T11:53:25.889Z,98509.19
2022-09-04T11:56:11.706Z,98510.16
2022-09-04T11:59:16.922Z,98499.91
2022-09-04T12:02:15.928Z,98501.44
2022-09-04T12:05:08.657Z,98518.91
2022-09-04T12:08:05.095Z,98513.94
2022-09-04T12:10:55.837Z,98514.94
2022-09-04T12:13:54.137Z,98520.66
2022-09-04T12:16:42.240Z,98531.53
2022-09-04T12:19:31.649Z,98520.53
2022-09-04T12:22:38.814Z,98526.22
2022-09-04T12:26:03.480Z,98521.81
2022-09-04T12:29:04.122Z,98519.28
2022-09-04T12:32:09.362Z,98514.34
2022-09-04T12:35:03.297Z,98514.16
2022-09-04T12:37:45.115Z,98519.31
2022-09-04T12:40:54.426Z,98522.06
2022-09-04T12:43:54.624Z,98520.56
2022-09-04T12:46:58.514Z,98507.66
2022-09-04T12:49:39.590Z,98516.56
2022-09-04T12:52:52.326Z,98523.59
2022-09-04T12:55:52.973Z,98511.69
2022-09-04T12:58:47.929Z,98503.53
2022-09-04T13:01:53.536Z,98501.28
2022-09-04T13:04:32.306Z,98500.97
2022-09-04T13:07:16.239Z,98508.34
2022-09-04T13:09:55.177Z,98509.84
2022-09-04T13:13:22.289Z,98500.41
2022-09-04T13:16:16.523Z,98504.34
2022-09-04T13:19:11.947Z,98500.47
2022-09-04T13:22:10.619Z,98500.06
2022-09-04T13:24:44.593Z,98504.00
2022-09-04T13:27:26.821Z,98506.97
2022-09-04T13:30:21.688Z,98511.56
2022-09-04T13:33:49.301Z,98510.66
2022-09-04T13:36:25.300Z,98514.22
2022-09-04T13:39:26.127Z,98506.06
2022-09-04T13:42:25.232Z,98506.06
2022-09-04T13:45:13.082Z,98518.91
2022-09-04T13:47:50.269Z,98507.28
2022-09-04T13:50:27.673Z,98513.16
2022-09-04T13:52:57.981Z,98510.06
2022-09-04T13:55:39.682Z,98502.41
2022-09-04T13:58:28.327Z,98506.97
2022-09-04T14:01:00.385Z,98509.00
2022-09-04T14:03:52.201Z,98504.47
2022-09-04T14:06:24.336Z,98499.25
2022-09-04T14:09:04.946Z,98498.19
2022-09-04T14:12:03.070Z,98509.53
2022-09-04T14:15:13.675Z,98502.28
2022-09-04T14:17:56.693Z,98501.72
2022-09-04T14:20:40.689Z,98504.84
2022-09-04T14:23:38.974Z,98502.13
2022-09-04T14:26:29.162Z,98511.25
2022-09-04T14:29:07.713Z,98510.25
2022-09-04T14:32:18.773Z,98510.25
2022-09-04T14:35:22.100Z,98509.34
2022-09-04T14:38:41.295Z,98517.91
2022-09-04T14:41:21.096Z,98515.50
2022-09-04T14:44:39.775Z,98513.34
2022-09-04T14:47:25.378Z,98512.25
2022-09-04T14:49:57.603Z,98506.69
2022-09-04T14:52:37.913Z,98514.06
2022-09-04T14:55:33.356Z,98516.63
2022-09-04T14:58:20.152Z,98511.31
2022-09-04T15:01:19.539Z,98503.22
2022-09-04T15:03:58.425Z,98512.25
2022-09-04T15:07:12.464Z,98510.25
2022-09-04T15:09:44.672Z,98501.25
2022-09-04T15:12:25.129Z,98504.75
2022-09-04T15:15:16.196Z,98502.78
2022-09-04T15:17:54.283Z,98497.25
2022-09-04T15:20:33.133Z,98503.47
2022-09-04T15:23:19.539Z,98502.03
2022-09-04T15:26:30.319Z,98507.63
2022-09-04T15:29:20.349Z,98501.41
2022-09-04T15:31:47.556Z,98504.38
2022-09-04T15:34:25.011Z,98493.09
2022-09-04T15:36:52.326Z,98501.59
2022-09-04T15:39:36.874Z,98503.66
2022-09-04T15:42:04.040Z,98497.63
2022-09-04T15:44:47.375Z,98491.56
2022-09-04T15:47:35.972Z,98500.88
2022-09-04T15:50:18.210Z,98496.50
2022-09-04T15:53:27.049Z,98498.44
2022-09-04T15:56:06.967Z,98488.81
2022-09-04T15:58:46.427Z,98493.13
2022-09-04T16:01:21.073Z,98493.72
2022-09-04T16:04:23.637Z,98489.16
2022-09-04T16:06:58.873Z,98495.47
2022-09-04T16:09:48.326Z,98485.66
2022-09-04T16:12:27.860Z,98492.66
2022-09-04T16:15:21.233Z,98496.31
2022-09-04T16:17:55.191Z,98480.78
2022-09-04T16:20:38.142Z,98481.63
2022-09-04T16:23:10.316Z,98479.16
2022-09-04T16:25:49.699Z,98470.28
2022-09-04T16:28:33.214Z,98476.44
2022-09-04T16:31:12.979Z,98476.66
2022-09-04T16:33:53.424Z,98475.34
2022-09-04T16:36:25.731Z,98480.84
2022-09-04T16:39:19.553Z,98473.50
2022-09-04T16:41:49.862Z,98477.00
2022-09-04T16:44:45.345Z,98479.72
2022-09-04T16:47:26.358Z,98476.75
2022-09-04T16:50:18.856Z,98482.56
2022-09-04T16:53:17.539Z,98484.91
2022-09-04T16:56:12.879Z,98482.16
2022-09-04T16:58:56.572Z,98476.41
2022-09-04T17:01:42.869Z,98482.72
2022-09-04T17:04:14.366Z,98476.81
2022-09-04T17:06:54.357Z,98475.84
2022-09-04T17:10:05.934Z,98486.50
2022-09-04T17:13:15.732Z,98487.75
2022-09-04T17:15:55.391Z,98489.03
2022-09-04T17:18:24.618Z,98487.28
2022-09-04T17:23:57.664Z,98490.78
2022-09-04T17:28:59.749Z,98491.72
2022-09-04T17:29:13.597Z,98492.78
2022-09-04T17:30:07.095Z,98487.75
2022-09-04T17:35:18.774Z,98489.72
2022-09-04T17:40:36.704Z,98491.94
2022-09-04T17:40:56.732Z,98481.75
2022-09-04T17:42:27.823Z,98491.59
2022-09-04T17:45:32.128Z,98487.50
2022-09-04T17:48:25.022Z,98485.78
2022-09-04T17:50:59.604Z,98496.09
2022-09-04T17:53:34.499Z,98487.47
2022-09-04T17:56:38.013Z,98494.72
2022-09-04T17:59:30.675Z,98498.19
2022-09-04T18:02:28.257Z,98507.56
2022-09-04T18:05:03.482Z,98511.59
2022-09-04T18:08:09.851Z,98504.13
2022-09-04T18:11:07.312Z,98517.34
2022-09-04T18:13:42.002Z,98523.72
2022-09-04T18:17:12.458Z,98522.66
2022-09-04T18:19:48.840Z,98527.47
2022-09-04T18:22:59.009Z,98531.03
2022-09-04T18:25:35.081Z,98536.97
2022-09-04T18:28:42.486Z,98539.47
2022-09-04T18:37:05.307Z,98537.91
2022-09-04T18:37:23.603Z,98548.84
2022-09-04T18:37:47.333Z,98546.06
2022-09-04T18:41:26.657Z,98550.13
2022-09-04T18:49:32.464Z,98557.22
2022-09-04T18:50:28.625Z,98557.44
2022-09-04T18:50:34.792Z,98559.66
2022-09-04T18:52:04.691Z,98560.16
2022-09-04T18:55:08.954Z,98567.16
2022-09-04T18:57:49.107Z,98575.41
2022-09-04T19:00:33.394Z,98570.22
2022-09-04T19:03:29.822Z,98576.44
2022-09-04T19:06:10.762Z,98578.34
2022-09-04T19:08:47.305Z,98582.94
2022-09-04T19:11:41.585Z,98584.28
2022-09-04T19:14:18.888Z,98592.16
2022-09-04T19:16:58.569Z,98584.56
2022-09-04T19:19:35.645Z,98579.91
2022-09-04T19:22:28.162Z,98578.88
2022-09-04T19:25:21.254Z,98594.31
2022-09-04T19:28:16.480Z,98589.19
2022-09-04T19:31:04.400Z,98587.78
2022-09-04T19:33:41.645Z,98584.59
2022-09-04T19:36:34.778Z,98587.28
2022-09-04T19:46:01.784Z,98586.22
2022-09-04T19:46:06.998Z,98593.50
2022-09-04T19:46:24.979Z,98586.44
2022-09-04T19:52:32.182Z,98592.28
2022-09-04T19:53:34.523Z,98593.53
2022-09-04T19:55:55.465Z,98590.88
2022-09-04T19:58:43.984Z,98597.06
2022-09-04T20:01:23.928Z,98592.50
2022-09-04T20:04:00.755Z,98593.22
2022-09-04T20:07:09.851Z,98592.47
2022-09-04T20:09:45.609Z,98595.25
2022-09-04T20:12:26.031Z,98589.97
2022-09-04T20:15:03.711Z,98586.56
2022-09-04T20:18:04.211Z,98594.25
2022-09-04T20:21:18.025Z,98582.41
2022-09-04T20:24:01.898Z,98583.47
2022-09-04T20:26:35.978Z,98585.38
2022-09-04T20:29:17.053Z,98585.59
2022-09-04T20:31:52.990Z,98583.19
2022-09-04T20:34:31.751Z,98583.47
2022-09-04T20:37:39.267Z,98587.78
2022-09-04T20:40:41.614Z,98577.78
2022-09-04T20:43:26.775Z,98577.50
2022-09-04T20:47:30.716Z,98575.91
2022-09-04T20:52:54.580Z,98574.28
2022-09-04T20:52:57.197Z,98580.00
2022-09-04T20:55:49.745Z,98590.00
2022-09-04T21:03:05.648Z,98586.22
2022-09-04T21:03:19.491Z,98577.53
2022-09-04T21:05:03.020Z,98593.22
2022-09-04T21:07:42.865Z,98587.16
2022-09-04T21:10:57.399Z,98595.06
2022-09-04T21:13:51.024Z,98592.56
2022-09-04T21:17:16.991Z,98591.44
2022-09-04T21:20:30.876Z,98584.69
2022-09-04T21:23:28.572Z,98580.06
2022-09-04T21:26:30.332Z,98587.53
2022-09-04T21:29:24.313Z,98580.81
2022-09-04T21:32:43.729Z,98579.47
2022-09-04T21:35:32.154Z,98584.16
2022-09-04T21:38:23.146Z,98580.47
2022-09-04T21:41:35.176Z,98589.50
2022-09-04T21:44:34.563Z,98589.16
2022-09-04T21:48:02.533Z,98590.00
2022-09-04T21:50:44.623Z,98595.28
2022-09-04T21:53:54.819Z,98597.56
2022-09-04T22:02:30.784Z,98602.16
2022-09-04T22:02:42.249Z,98599.19
2022-09-04T22:03:15.147Z,98608.09
2022-09-04T22:05:59.865Z,98606.88
2022-09-04T22:13:29.187Z,98607.97
2022-09-04T22:13:42.209Z,98605.63
2022-09-04T22:15:10.014Z,98601.47
2022-09-04T22:18:07.222Z,98607.94
2022-09-04T22:20:53.709Z,98603.69
2022-09-04T22:23:57.778Z,98601.75
2022-09-04T22:26:48.361Z,98597.06
2022-09-04T22:29:53.978Z,98607.13
2022-09-04T22:32:48.090Z,98607.38
2022-09-04T22:35:50.344Z,98605.44
2022-09-04T22:39:08.062Z,98614.91
2022-09-04T22:42:20.260Z,98615.56
2022-09-04T22:45:17.742Z,98610.16
2022-09-04T22:48:31.601Z,98619.19
2022-09-04T22:51:23.413Z,98620.72
2022-09-04T22:54:21.427Z,98619.69
2022-09-04T22:56:54.206Z,98615.34
2022-09-04T23:00:11.058Z,98618.78
2022-09-04T23:03:07.120Z,98614.78
2022-09-04T23:06:27.426Z,98620.22
2022-09-04T23:13:53.396Z,98621.13
2022-09-04T23:13:58.088Z,98625.75
2022-09-04T23:16:36.167Z,98619.25
2022-09-04T23:26:33.254Z,98622.75
2022-09-04T23:26:43.056Z,98629.53
2022-09-04T23:26:53.127Z,98622.19
2022-09-04T23:29:06.524Z,98621.78
2022-09-04T23:32:10.251Z,98635.00
2022-09-04T23:35:14.650Z,98629.84
2022-09-04T23:38:17.684Z,98631.34
2022-09-04T23:41:31.132Z,98629.66
2022-09-04T23:44:44.765Z,98628.34
2022-09-04T23:47:48.596Z,98625.00
2022-09-04T23:50:29.022Z,98623.91
2022-09-04T23:53:44.680Z,98622.41
2022-09-04T23:56:16.169Z,98623.81
2022-09-04T23:59:38.008Z,98621.88
